createdAt,value
2022-08-18T00:02:06.663Z,44.00
2022-08-18T00:04:48.663Z,48.00
2022-08-18T00:07:24.459Z,47.33
2022-08-18T00:09:55.081Z,43.25
2022-08-18T00:12:45.462Z,45.00
2022-08-18T00:15:18.032Z,48.00
2022-08-18T00:17:48.787Z,47.00
2022-08-18T00:20:24.407Z,45.25
2022-08-18T00:22:55.941Z,46.50
2022-08-18T00:25:27.070Z,44.75
2022-08-18T00:27:57.473Z,44.00
2022-08-18T00:30:27.584Z,45.25
2022-08-18T00:32:59.827Z,44.25
2022-08-18T00:35:37.658Z,45.25
2022-08-18T00:38:23.350Z,44.33
2022-08-18T00:40:57.674Z,44.50
2022-08-18T00:43:42.044Z,50.00
2022-08-18T00:46:17.350Z,48.00
2022-08-18T00:48:48.420Z,42.00
2022-08-18T00:51:51.658Z,43.75
2022-08-18T00:54:27.768Z,41.75
2022-08-18T00:57:02.275Z,45.25
2022-08-18T00:59:37.386Z,43.00
2022-08-18T01:02:11.758Z,44.00
2022-08-18T01:04:56.730Z,42.00
2022-08-18T01:07:38.227Z,42.00
2022-08-18T01:10:09.245Z,43.75
2022-08-18T01:12:44.939Z,44.75
2022-08-18T01:15:29.484Z,44.25
2022-08-18T01:18:23.027Z,46.50
2022-08-18T01:21:33.165Z,47.50
2022-08-18T01:24:06.812Z,39.25
2022-08-18T01:26:51.181Z,42.75
2022-08-18T01:29:22.219Z,42.00
2022-08-18T01:31:57.061Z,44.25
2022-08-18T01:34:29.616Z,41.50
2022-08-18T01:37:00.631Z,40.00
2022-08-18T01:41:23.343Z,45.50
2022-08-18T01:42:21.211Z,47.00
2022-08-18T01:44:52.635Z,49.00
2022-08-18T01:47:22.648Z,46.75
2022-08-18T01:52:23.656Z,48.25
2022-08-18T01:57:24.540Z,46.75
2022-08-18T01:59:55.212Z,49.50
2022-08-18T02:02:29.160Z,50.00
2022-08-18T02:05:07.264Z,47.25
2022-08-18T02:07:38.859Z,44.50
2022-08-18T02:10:16.527Z,47.67
2022-08-18T02:12:46.880Z,49.00
2022-08-18T02:15:17.950Z,50.00
2022-08-18T02:17:49.147Z,47.00
2022-08-18T02:20:21.128Z,48.00
2022-08-18T02:22:52.010Z,44.33
2022-08-18T02:25:23.282Z,44.33
2022-08-18T02:27:53.737Z,45.25
2022-08-18T02:30:24.006Z,44.25
2022-08-18T02:32:54.271Z,49.00
2022-08-18T02:35:24.312Z,49.75
2022-08-18T02:37:54.584Z,49.75
2022-08-18T02:40:24.828Z,50.00
2022-08-18T02:42:55.555Z,48.00
2022-08-18T02:45:26.590Z,48.33
2022-08-18T02:47:59.571Z,47.25
2022-08-18T02:50:29.920Z,49.00
2022-08-18T02:53:00.430Z,48.00
2022-08-18T02:55:31.071Z,50.00
2022-08-18T02:58:03.751Z,50.00
2022-08-18T03:00:34.064Z,49.00
2022-08-18T03:03:05.485Z,47.75
2022-08-18T03:05:36.847Z,50.00
2022-08-18T03:08:07.762Z,48.00
2022-08-18T03:10:38.436Z,47.75
2022-08-18T03:13:08.794Z,50.00
2022-08-18T03:15:38.815Z,49.50
2022-08-18T03:18:08.951Z,48.00
2022-08-18T03:20:39.167Z,50.00
2022-08-18T03:23:11.855Z,49.67
2022-08-18T03:25:52.869Z,48.00
2022-08-18T03:28:24.212Z,48.00
2022-08-18T03:30:54.577Z,48.00
2022-08-18T03:35:54.247Z,48.67
2022-08-18T03:38:24.958Z,45.00
2022-08-18T03:40:56.149Z,45.00
2022-08-18T03:43:51.020Z,45.00
2022-08-18T03:46:25.491Z,46.50
2022-08-18T03:51:29.965Z,43.75
2022-08-18T03:54:23.327Z,45.00
2022-08-18T03:56:58.325Z,46.25
2022-08-18T03:59:36.207Z,46.50
2022-08-18T04:02:27.744Z,47.67
2022-08-18T04:05:09.700Z,47.50
2022-08-18T04:07:55.561Z,45.50
2022-08-18T04:10:26.652Z,47.00
2022-08-18T04:12:56.664Z,47.00
2022-08-18T04:15:27.145Z,46.00
2022-08-18T04:18:06.012Z,48.00
2022-08-18T04:20:37.140Z,46.50
2022-08-18T04:23:07.249Z,46.25
2022-08-18T04:25:37.301Z,44.33
2022-08-18T04:30:37.984Z,44.33
2022-08-18T04:33:08.126Z,47.00
2022-08-18T04:35:38.117Z,45.33
2022-08-18T04:38:08.838Z,46.00
2022-08-18T04:40:39.729Z,45.50
2022-08-18T04:43:16.525Z,48.33
2022-08-18T04:45:52.303Z,44.75
2022-08-18T04:48:22.886Z,46.75
2022-08-18T04:50:53.350Z,45.25
2022-08-18T04:53:41.554Z,45.50
2022-08-18T04:56:11.668Z,47.50
2022-08-18T04:58:41.682Z,47.25
2022-08-18T05:01:11.880Z,45.50
2022-08-18T05:08:51.080Z,47.25
2022-08-18T05:11:22.941Z,50.00
2022-08-18T05:13:57.143Z,46.00
2022-08-18T05:16:28.537Z,44.00
2022-08-18T05:19:01.238Z,43.33
2022-08-18T05:21:38.269Z,43.25
2022-08-18T05:24:10.093Z,45.33
2022-08-18T05:26:43.006Z,46.75
2022-08-18T05:29:19.154Z,44.75
2022-08-18T05:31:52.231Z,44.25
2022-08-18T05:34:23.574Z,43.75
2022-08-18T05:37:05.826Z,45.75
2022-08-18T05:39:48.231Z,44.50
2022-08-18T05:42:22.416Z,45.75
2022-08-18T05:44:55.805Z,43.75
2022-08-18T05:47:30.974Z,42.00
2022-08-18T05:53:02.747Z,45.00
2022-08-18T05:56:05.449Z,45.50
2022-08-18T05:58:51.609Z,41.50
2022-08-18T06:01:38.306Z,43.50
2022-08-18T06:04:33.277Z,43.00
2022-08-18T06:07:07.243Z,45.25
2022-08-18T06:09:47.217Z,46.75
2022-08-18T06:12:29.229Z,44.33
2022-08-18T06:15:20.617Z,44.00
2022-08-18T06:18:02.153Z,47.75
2022-08-18T06:20:32.960Z,47.50
2022-08-18T06:23:27.236Z,46.75
2022-08-18T06:26:16.334Z,44.50
2022-08-18T06:29:02.204Z,48.00
2022-08-18T06:31:58.252Z,47.67
2022-08-18T06:34:38.710Z,46.00
2022-08-18T06:37:33.320Z,46.00
2022-08-18T06:40:03.605Z,44.50
2022-08-18T06:42:36.527Z,46.25
2022-08-18T06:45:19.596Z,47.00
2022-08-18T06:48:02.633Z,45.50
2022-08-18T06:50:45.831Z,42.00
2022-08-18T06:53:26.933Z,45.00
2022-08-18T06:55:58.782Z,46.25
2022-08-18T06:58:32.814Z,47.00
2022-08-18T07:01:07.915Z,46.75
2022-08-18T07:03:38.412Z,48.25
2022-08-18T07:06:22.658Z,46.25
2022-08-18T07:08:55.507Z,45.50
2022-08-18T07:11:30.111Z,46.00
2022-08-18T07:14:30.000Z,43.25
2022-08-18T07:17:42.851Z,47.00
2022-08-18T07:20:26.943Z,47.50
2022-08-18T07:23:01.016Z,48.25
2022-08-18T07:25:39.975Z,47.25
2022-08-18T07:28:28.563Z,48.00
2022-08-18T07:31:17.748Z,47.75
2022-08-18T07:34:03.415Z,47.25
2022-08-18T07:36:42.661Z,46.50
2022-08-18T07:39:40.619Z,45.00
2022-08-18T07:43:02.031Z,42.50
2022-08-18T07:45:38.504Z,47.00
2022-08-18T07:51:38.299Z,49.33
2022-08-18T07:54:31.207Z,47.00
2022-08-18T07:57:20.325Z,47.00
2022-08-18T07:59:58.662Z,46.00
2022-08-18T08:02:50.572Z,46.00
2022-08-18T08:06:02.479Z,48.50
2022-08-18T08:08:52.971Z,45.75
2022-08-18T08:11:45.561Z,45.00
2022-08-18T08:14:21.691Z,41.00
2022-08-18T08:17:18.573Z,44.25
2022-08-18T08:20:04.689Z,41.50
2022-08-18T08:23:13.403Z,43.00
2022-08-18T08:26:48.897Z,42.00
2022-08-18T08:32:05.955Z,42.33
2022-08-18T08:34:54.554Z,42.00
2022-08-18T08:37:44.023Z,44.25
2022-08-18T08:40:55.871Z,44.67
2022-08-18T08:44:17.377Z,40.25
2022-08-18T08:50:23.902Z,39.00
2022-08-18T08:53:03.652Z,41.00
2022-08-18T08:55:47.477Z,41.25
2022-08-18T08:58:41.334Z,39.50
2022-08-18T09:01:35.914Z,42.00
2022-08-18T09:05:07.510Z,39.50
2022-08-18T09:07:52.921Z,42.25
2022-08-18T09:10:43.698Z,42.25
2022-08-18T09:13:50.076Z,41.00
2022-08-18T09:16:48.805Z,42.00
2022-08-18T09:19:46.507Z,43.75
2022-08-18T09:24:54.218Z,41.00
2022-08-18T09:27:48.542Z,38.00
2022-08-18T09:30:51.292Z,40.50
2022-08-18T09:37:55.352Z,40.25
2022-08-18T09:41:03.300Z,40.50
2022-08-18T09:47:47.986Z,38.00
2022-08-18T09:50:28.304Z,37.00
2022-08-18T09:53:56.700Z,38.75
2022-08-18T09:56:55.678Z,37.75
2022-08-18T09:59:35.256Z,39.75
2022-08-18T10:02:38.626Z,46.50
2022-08-18T10:11:12.096Z,43.25
2022-08-18T10:13:25.898Z,36.50
2022-08-18T10:17:13.522Z,33.75
2022-08-18T10:20:07.228Z,33.50
2022-08-18T10:22:51.148Z,35.50
2022-08-18T10:25:44.155Z,36.25
2022-08-18T10:28:52.547Z,37.00
2022-08-18T10:31:24.168Z,34.25
2022-08-18T10:34:00.499Z,34.00
2022-08-18T10:37:06.283Z,34.75
2022-08-18T10:39:43.986Z,33.50
2022-08-18T10:42:40.063Z,31.67
2022-08-18T10:46:25.219Z,31.00
2022-08-18T10:52:23.073Z,35.50
2022-08-18T10:55:47.726Z,36.25
2022-08-18T10:59:16.004Z,39.25
2022-08-18T11:05:25.202Z,37.00
2022-08-18T11:08:28.004Z,36.00
2022-08-18T11:11:24.562Z,37.75
2022-08-18T11:13:59.820Z,35.25
2022-08-18T11:16:49.764Z,36.00
2022-08-18T11:19:25.969Z,36.25
2022-08-18T11:21:56.981Z,37.25
2022-08-18T11:24:34.026Z,31.75
2022-08-18T11:30:05.686Z,40.25
2022-08-18T11:32:51.825Z,38.00
2022-08-18T11:35:32.788Z,34.25
2022-08-18T11:38:23.265Z,34.50
2022-08-18T11:41:13.554Z,36.00
2022-08-18T11:43:47.565Z,27.75
2022-08-18T11:49:31.330Z,35.50
2022-08-18T11:52:19.817Z,35.00
2022-08-18T11:55:16.432Z,34.75
2022-08-18T11:57:58.991Z,36.25
2022-08-18T12:00:48.253Z,35.00
2022-08-18T12:03:46.478Z,37.25
2022-08-18T12:06:33.877Z,35.50
2022-08-18T12:09:37.008Z,27.50
2022-08-18T12:12:20.667Z,36.00
2022-08-18T12:15:13.615Z,34.00
2022-08-18T12:17:52.667Z,35.00
2022-08-18T12:20:25.014Z,38.50
2022-08-18T12:23:00.839Z,35.00
2022-08-18T12:25:34.843Z,41.25
2022-08-18T12:28:11.094Z,36.75
2022-08-18T12:30:42.357Z,36.00
2022-08-18T12:33:18.198Z,33.33
2022-08-18T12:35:59.521Z,30.50
2022-08-18T12:38:30.562Z,34.75
2022-08-18T12:46:46.432Z,34.75
2022-08-18T12:49:26.983Z,31.00
2022-08-18T12:51:57.168Z,37.25
2022-08-18T12:54:35.061Z,34.67
2022-08-18T12:57:11.194Z,39.00
2022-08-18T13:02:12.952Z,43.25
2022-08-18T13:04:43.453Z,42.50
2022-08-18T13:07:18.922Z,46.67
2022-08-18T13:09:53.586Z,46.50
2022-08-18T13:12:27.531Z,47.00
2022-08-18T13:14:59.535Z,45.00
2022-08-18T13:20:09.694Z,42.25
2022-08-18T13:22:52.137Z,48.00
2022-08-18T13:25:32.975Z,48.25
2022-08-18T13:28:12.626Z,43.00
2022-08-18T13:30:47.007Z,45.67
2022-08-18T13:33:56.365Z,42.75
2022-08-18T13:36:10.733Z,42.75
2022-08-18T13:38:44.399Z,44.25
2022-08-18T13:43:58.377Z,45.00
2022-08-18T13:46:35.606Z,35.75
2022-08-18T13:49:15.596Z,46.50
2022-08-18T13:51:51.823Z,45.50
2022-08-18T13:54:35.213Z,50.00
2022-08-18T13:57:15.867Z,48.67
2022-08-18T14:00:02.345Z,47.75
2022-08-18T14:02:43.121Z,47.00
2022-08-18T14:05:17.743Z,49.67
2022-08-18T14:07:49.282Z,49.00
2022-08-18T14:10:29.283Z,48.00
2022-08-18T14:13:19.939Z,46.67
2022-08-18T14:15:59.535Z,45.00
2022-08-18T14:18:32.081Z,46.33
2022-08-18T14:21:23.058Z,49.75
2022-08-18T14:24:14.625Z,45.50
2022-08-18T14:26:50.708Z,45.00
2022-08-18T14:29:46.479Z,48.75
2022-08-18T14:32:28.519Z,47.00
2022-08-18T14:35:32.978Z,47.00
2022-08-18T14:37:57.080Z,46.00
2022-08-18T14:40:30.305Z,48.25
2022-08-18T14:43:08.589Z,47.33
2022-08-18T14:45:58.238Z,42.00
2022-08-18T14:48:50.706Z,45.00
2022-08-18T14:51:35.028Z,44.67
2022-08-18T14:54:09.418Z,49.75
2022-08-18T14:56:49.584Z,47.75
2022-08-18T14:59:21.179Z,48.00
2022-08-18T15:01:51.910Z,49.00
2022-08-18T15:04:24.338Z,47.33
2022-08-18T15:06:56.345Z,48.00
2022-08-18T15:09:29.005Z,45.50
2022-08-18T15:12:01.419Z,47.75
2022-08-18T15:14:36.335Z,46.67
2022-08-18T15:17:18.894Z,45.00
2022-08-18T15:20:01.227Z,47.25
2022-08-18T15:22:50.659Z,50.00
2022-08-18T15:25:43.467Z,50.00
2022-08-18T15:28:27.796Z,49.67
2022-08-18T15:33:51.780Z,48.00
2022-08-18T15:36:29.332Z,48.50
2022-08-18T15:39:02.246Z,47.25
2022-08-18T15:41:46.657Z,49.50
2022-08-18T15:44:29.767Z,48.00
2022-08-18T15:47:09.916Z,48.00
2022-08-18T15:49:44.691Z,48.50
2022-08-18T15:52:17.454Z,47.50
2022-08-18T15:54:52.526Z,48.50
2022-08-18T15:57:39.699Z,47.25
2022-08-18T16:00:18.593Z,45.75
2022-08-18T16:02:58.448Z,49.50
2022-08-18T16:05:45.326Z,47.67
2022-08-18T16:08:19.329Z,49.33
2022-08-18T16:10:58.161Z,50.00
2022-08-18T16:13:34.193Z,50.00
2022-08-18T16:16:29.220Z,45.00
2022-08-18T16:19:09.486Z,43.33
2022-08-18T16:21:41.309Z,48.00
2022-08-18T16:24:14.534Z,46.00
2022-08-18T16:26:47.195Z,47.00
2022-08-18T16:29:18.957Z,47.33
2022-08-18T16:31:52.380Z,48.25
2022-08-18T16:34:23.357Z,46.00
2022-08-18T16:36:53.830Z,40.25
2022-08-18T16:39:25.771Z,49.00
2022-08-18T16:41:56.952Z,49.50
2022-08-18T16:44:34.136Z,48.00
2022-08-18T16:47:17.238Z,47.00
2022-08-18T16:49:50.100Z,45.00
2022-08-18T16:52:23.289Z,49.67
2022-08-18T16:54:57.702Z,50.00
2022-08-18T16:57:54.102Z,50.00
2022-08-18T17:03:32.624Z,47.75
2022-08-18T17:06:09.187Z,44.33
2022-08-18T17:08:44.971Z,47.25
2022-08-18T17:11:22.199Z,43.25
2022-08-18T17:13:54.053Z,42.25
2022-08-18T17:16:27.597Z,44.50
2022-08-18T17:19:01.770Z,45.33
2022-08-18T17:21:45.950Z,43.25
2022-08-18T17:24:17.987Z,40.67
2022-08-18T17:26:57.061Z,45.50
2022-08-18T17:29:46.609Z,42.00
2022-08-18T17:32:26.912Z,44.50
2022-08-18T17:35:05.569Z,46.33
2022-08-18T17:37:38.717Z,42.25
2022-08-18T17:40:40.393Z,42.25
2022-08-18T17:43:16.638Z,44.00
2022-08-18T17:45:51.196Z,41.50
2022-08-18T17:48:35.709Z,46.33
2022-08-18T17:51:35.846Z,48.00
2022-08-18T17:54:34.140Z,39.25
2022-08-18T17:57:09.731Z,41.50
2022-08-18T18:00:12.549Z,42.00
2022-08-18T18:02:46.968Z,42.00
2022-08-18T18:05:20.649Z,42.00
2022-08-18T18:07:51.868Z,36.00
2022-08-18T18:10:31.430Z,38.75
2022-08-18T18:13:32.905Z,35.75
2022-08-18T18:16:23.280Z,37.00
2022-08-18T18:19:05.586Z,37.25
2022-08-18T18:22:01.049Z,34.67
2022-08-18T18:24:35.893Z,32.75
2022-08-18T18:27:32.921Z,30.50
2022-08-18T18:32:59.406Z,31.00
2022-08-18T18:35:34.138Z,35.75
2022-08-18T18:38:27.745Z,39.50
2022-08-18T18:41:15.498Z,35.75
2022-08-18T18:43:52.676Z,35.67
2022-08-18T18:46:35.642Z,37.00
2022-08-18T18:49:13.350Z,37.75
2022-08-18T18:52:26.695Z,34.75
2022-08-18T18:55:05.991Z,35.00
2022-08-18T19:00:53.724Z,38.50
2022-08-18T19:03:35.060Z,35.00
2022-08-18T19:06:36.416Z,35.00
2022-08-18T19:09:23.302Z,34.50
2022-08-18T19:12:14.648Z,34.75
2022-08-18T19:15:00.669Z,33.25
2022-08-18T19:17:55.590Z,36.25
2022-08-18T19:22:01.674Z,36.00
2022-08-18T19:23:48.044Z,33.75
2022-08-18T19:26:35.278Z,35.75
2022-08-18T19:29:16.030Z,38.00
2022-08-18T19:32:04.855Z,34.50
2022-08-18T19:34:47.605Z,31.00
2022-08-18T19:37:31.580Z,33.50
2022-08-18T19:40:16.721Z,36.25
2022-08-18T19:43:30.981Z,37.00
2022-08-18T19:51:45.782Z,35.67
2022-08-18T19:54:25.704Z,37.25
2022-08-18T20:00:13.352Z,31.00
2022-08-18T20:02:54.280Z,29.00
2022-08-18T20:05:32.818Z,32.67
2022-08-18T20:08:26.927Z,33.00
2022-08-18T20:11:41.739Z,38.67
2022-08-18T20:14:17.232Z,26.33
2022-08-18T20:17:06.945Z,31.50
2022-08-18T20:19:58.637Z,30.33
2022-08-18T20:22:46.622Z,35.75
2022-08-18T20:25:19.797Z,34.25
2022-08-18T20:28:24.814Z,36.00
2022-08-18T20:31:08.552Z,41.33
2022-08-18T20:33:47.520Z,31.00
2022-08-18T20:36:38.977Z,29.25
2022-08-18T20:39:36.352Z,30.25
2022-08-18T20:42:30.576Z,27.50
2022-08-18T20:45:24.941Z,35.25
2022-08-18T20:48:30.484Z,31.75
2022-08-18T20:51:04.753Z,32.67
2022-08-18T20:53:50.973Z,37.00
2022-08-18T20:56:45.454Z,30.75
2022-08-18T20:59:22.807Z,32.50
2022-08-18T21:02:02.165Z,35.50
2022-08-18T21:07:36.511Z,41.67
2022-08-18T21:10:26.311Z,37.25
2022-08-18T21:12:59.230Z,36.00
2022-08-18T21:18:08.352Z,29.00
2022-08-18T21:20:39.065Z,30.33
2022-08-18T21:23:12.917Z,30.75
2022-08-18T21:25:55.189Z,26.25
2022-08-18T21:28:29.649Z,28.00
2022-08-18T21:31:42.230Z,26.50
2022-08-18T21:34:06.116Z,31.67
2022-08-18T21:36:38.469Z,33.00
2022-08-18T21:39:17.190Z,33.00
2022-08-18T21:44:36.377Z,26.67
2022-08-18T21:47:21.772Z,30.25
2022-08-18T21:50:24.422Z,28.00
2022-08-18T21:53:15.809Z,18.25
2022-08-18T21:55:51.380Z,28.50
2022-08-18T21:58:33.986Z,25.25
2022-08-18T22:04:22.042Z,26.00
2022-08-18T22:07:04.231Z,18.00
2022-08-18T22:09:54.703Z,11.50
2022-08-18T22:12:52.499Z,17.00
2022-08-18T22:15:42.231Z,17.00
2022-08-18T22:18:20.072Z,11.00
2022-08-18T22:20:56.209Z,10.00
2022-08-18T22:23:55.784Z,6.50
2022-08-18T22:26:34.493Z,10.67
2022-08-18T22:29:28.225Z,6.00
2022-08-18T22:31:58.423Z,9.00
2022-08-18T22:34:31.624Z,11.50
2022-08-18T22:37:13.973Z,5.00
2022-08-18T22:39:57.838Z,8.00
2022-08-18T22:42:33.343Z,8.00
2022-08-18T22:45:06.504Z,13.25
2022-08-18T22:47:42.884Z,6.00
2022-08-18T22:50:15.257Z,2.50
2022-08-18T22:52:50.875Z,4.50
2022-08-18T22:55:23.721Z,12.00
2022-08-18T22:57:55.767Z,6.00
2022-08-18T23:00:27.614Z,7.00
2022-08-18T23:02:58.713Z,8.00
2022-08-18T23:05:29.802Z,3.00
2022-08-18T23:07:59.833Z,6.50
2022-08-18T23:10:29.967Z,10.00
2022-08-18T23:13:04.242Z,4.00
2022-08-18T23:15:49.517Z,8.00
2022-08-18T23:18:21.925Z,6.00
2022-08-18T23:20:56.686Z,8.00
2022-08-18T23:23:29.061Z,4.00
2022-08-18T23:26:00.367Z,8.67
2022-08-18T23:28:30.626Z,4.00
2022-08-18T23:31:00.786Z,2.67
2022-08-18T23:33:30.806Z,4.00
2022-08-18T23:36:00.892Z,2.00
2022-08-18T23:38:31.546Z,8.00
2022-08-18T23:41:02.117Z,8.50
2022-08-18T23:43:32.826Z,6.00
2022-08-18T23:46:04.017Z,8.00
2022-08-18T23:48:34.064Z,7.33
2022-08-18T23:51:04.378Z,4.00
2022-08-18T23:53:34.425Z,5.50
2022-08-18T23:56:04.520Z,12.00
2022-08-18T23:58:34.492Z,4.00
